Time;durP1;ratioP1;P1;durP2;ratioP2;P2;SDS_P1;SDS_P2;PMS_P1;PMS_P2;Temp;Humidity;BMP_temperature;BMP_pressure;BME280_temperature;BME280_humidity;BME280_pressure;Samples;Min_cycle;Max_cycle;Signal;HPM_P1;HPM_P2
2022/06/12 00:01:54;;;;;;;2.25;1.35;;;19.40;79.20;;;;;;10499305;28;20039;-60
2022/06/12 00:06:55;;;;;;;3.35;1.30;;;19.40;78.70;;;;;;10499774;28;20047;-60
2022/06/12 00:11:56;;;;;;;4.43;1.38;;;19.30;78.70;;;;;;10503363;28;20093;-60
2022/06/12 00:16:56;;;;;;;4.72;1.77;;;19.30;79.30;;;;;;10511656;28;20028;-60
2022/06/12 00:21:58;;;;;;;4.72;1.27;;;19.30;78.80;;;;;;10520633;28;20040;-60
2022/06/12 00:27:00;;;;;;;2.85;1.35;;;19.20;78.70;;;;;;10509380;28;20446;-60
2022/06/12 00:32:12;;;;;;;3.53;1.40;;;19.20;78.80;;;;;;10523499;28;20067;-60
2022/06/12 00:37:14;;;;;;;4.50;1.33;;;19.10;78.80;;;;;;10513785;28;20108;-61
2022/06/12 00:42:27;;;;;;;1.70;1.05;;;19.30;78.90;;;;;;10514467;28;20063;-60
2022/06/12 00:47:28;;;;;;;2.70;1.40;;;19.10;78.80;;;;;;10518048;28;20028;-60
2022/06/12 00:52:45;;;;;;;1.98;1.15;;;19.10;78.80;;;;;;10516906;28;20040;-59
2022/06/12 00:57:46;;;;;;;4.43;1.33;;;19.10;78.80;;;;;;10513831;28;20024;-60
2022/06/12 01:02:47;;;;;;;1.88;1.00;;;19.00;78.90;;;;;;10515155;28;20020;-60
2022/06/12 01:07:55;;;;;;;1.92;1.10;;;19.00;78.90;;;;;;10520278;28;20044;-60
2022/06/12 01:13:01;;;;;;;1.67;1.20;;;18.90;78.80;;;;;;10513823;28;20496;-59
2022/06/12 01:18:06;;;;;;;2.63;1.20;;;18.90;78.90;;;;;;10520492;28;20115;-60
2022/06/12 01:23:31;;;;;;;1.83;1.30;;;18.90;78.90;;;;;;10517068;28;20105;-60
2022/06/12 01:28:38;;;;;;;2.58;1.40;;;18.90;78.90;;;;;;10498846;28;20043;-60
2022/06/12 01:33:50;;;;;;;2.40;1.10;;;18.80;78.90;;;;;;10512848;28;20118;-61
2022/06/12 01:39:11;;;;;;;2.50;1.52;;;18.80;78.90;;;;;;10514721;28;20028;-60
2022/06/12 01:44:31;;;;;;;5.05;1.45;;;18.70;78.80;;;;;;10514330;28;20080;-60
2022/06/12 01:49:47;;;;;;;2.08;1.10;;;18.70;78.90;;;;;;10505460;28;20040;-60
2022/06/12 01:54:58;;;;;;;2.35;1.02;;;18.70;78.90;;;;;;10512954;28;20108;-60
2022/06/12 02:00:13;;;;;;;2.55;0.90;;;18.60;78.90;;;;;;10513868;28;20025;-60
2022/06/12 02:05:28;;;;;;;3.95;1.67;;;18.60;78.90;;;;;;10502573;28;20492;-60
2022/06/12 02:10:41;;;;;;;1.80;1.00;;;18.60;78.90;;;;;;10511108;28;20136;-60
2022/06/12 02:15:48;;;;;;;5.80;1.40;;;18.60;79.00;;;;;;10510523;28;20555;-60
2022/06/12 02:21:18;;;;;;;1.98;1.10;;;18.50;78.90;;;;;;10513028;28;20123;-60
2022/06/12 02:26:24;;;;;;;3.85;1.30;;;18.50;79.00;;;;;;10509906;28;20032;-60
2022/06/12 02:31:31;;;;;;;2.10;1.08;;;18.50;79.00;;;;;;10502497;28;20386;-60
2022/06/12 02:36:38;;;;;;;2.75;1.10;;;18.40;79.00;;;;;;10505137;28;20093;-60
2022/06/12 02:41:46;;;;;;;4.10;1.20;;;18.40;79.00;;;;;;10514481;28;20782;-60
2022/06/12 02:46:52;;;;;;;2.75;1.55;;;18.40;79.10;;;;;;10505491;28;20062;-59
2022/06/12 02:52:06;;;;;;;4.10;1.63;;;18.40;79.10;;;;;;10501053;28;20036;-59
2022/06/12 02:57:45;;;;;;;6.22;1.38;;;18.30;79.10;;;;;;10510419;28;20405;-60
2022/06/12 03:02:55;;;;;;;3.95;1.40;;;18.30;79.10;;;;;;10477635;28;20512;-60
2022/06/12 03:08:01;;;;;;;2.08;1.10;;;18.30;79.10;;;;;;10510864;28;20040;-60
2022/06/12 03:13:04;;;;;;;3.40;1.10;;;18.30;79.10;;;;;;10512698;28;20034;-60
2022/06/12 03:18:07;;;;;;;1.75;1.30;;;18.20;79.60;;;;;;10511019;28;20016;-60
2022/06/12 03:23:24;;;;;;;2.38;1.08;;;18.20;79.10;;;;;;10502125;28;20032;-59
2022/06/12 03:28:43;;;;;;;4.32;1.20;;;18.20;79.10;;;;;;10496257;28;20020;-60
2022/06/12 03:33:44;;;;;;;1.75;0.95;;;18.20;79.10;;;;;;10498886;28;20421;-60
2022/06/12 03:38:53;;;;;;;3.08;1.10;;;18.10;79.10;;;;;;10512431;28;20025;-60
2022/06/12 03:44:24;;;;;;;5.47;1.17;;;18.10;79.10;;;;;;10505474;28;20031;-60
2022/06/12 03:49:50;;;;;;;3.92;1.13;;;18.10;79.10;;;;;;10508728;28;20087;-60
2022/06/12 03:55:10;;;;;;;2.88;1.17;;;18.00;78.90;;;;;;10505404;28;20442;-60
2022/06/12 04:00:36;;;;;;;3.72;1.30;;;18.00;79.60;;;;;;10511920;28;20052;-60
2022/06/12 04:05:53;;;;;;;3.47;1.20;;;18.00;79.00;;;;;;10504752;28;20032;-60
2022/06/12 04:10:55;;;;;;;4.00;1.30;;;18.00;79.10;;;;;;10506501;28;20072;-61
2022/06/12 04:16:22;;;;;;;1.73;1.00;;;18.00;79.10;;;;;;10508740;28;20063;-60
2022/06/12 04:21:38;;;;;;;2.67;1.15;;;18.00;79.10;;;;;;10509202;28;20063;-60
2022/06/12 04:26:41;;;;;;;2.80;1.15;;;18.00;79.10;;;;;;10507465;28;20384;-60
2022/06/12 04:31:46;;;;;;;3.45;1.25;;;17.90;79.10;;;;;;10504838;28;20048;-60
2022/06/12 04:36:52;;;;;;;3.80;1.27;;;17.90;79.10;;;;;;10499341;28;20069;-60
2022/06/12 04:41:54;;;;;;;3.22;1.40;;;17.90;79.10;;;;;;10504243;28;20020;-60
2022/06/12 04:46:57;;;;;;;2.65;1.10;;;17.90;79.20;;;;;;10506741;28;20032;-60
2022/06/12 04:52:01;;;;;;;2.00;0.93;;;17.90;79.20;;;;;;10507046;28;20037;-60
2022/06/12 04:57:01;;;;;;;4.25;1.27;;;17.90;79.20;;;;;;10509508;28;20055;-60
2022/06/12 05:02:03;;;;;;;3.90;1.10;;;17.90;79.20;;;;;;10515438;28;20455;-60
2022/06/12 05:07:07;;;;;;;4.47;1.38;;;17.90;79.30;;;;;;10507663;28;20144;-59
2022/06/12 05:12:10;;;;;;;4.25;0.90;;;17.90;79.30;;;;;;10517303;28;20055;-59
2022/06/12 05:17:13;;;;;;;3.42;1.25;;;17.90;79.30;;;;;;10515765;28;20123;-60
2022/06/12 05:22:15;;;;;;;3.25;1.35;;;17.90;79.30;;;;;;10512701;28;20126;-60
2022/06/12 05:27:20;;;;;;;3.22;1.00;;;17.90;79.30;;;;;;10518442;28;20032;-60
2022/06/12 05:32:22;;;;;;;5.28;1.10;;;17.90;79.30;;;;;;10511586;28;20031;-59
2022/06/12 05:37:23;;;;;;;3.13;1.10;;;17.90;79.40;;;;;;10506681;28;20412;-60
2022/06/12 05:42:23;;;;;;;2.88;1.10;;;17.90;79.50;;;;;;10508265;28;20035;-60
2022/06/12 05:47:24;;;;;;;9.45;1.48;;;17.90;79.60;;;;;;10508073;28;20025;-60
2022/06/12 05:52:25;;;;;;;3.67;1.20;;;17.90;79.60;;;;;;10503725;28;20037;-60
2022/06/12 05:57:25;;;;;;;4.35;1.23;;;17.90;79.70;;;;;;10505181;28;20024;-60
2022/06/12 06:02:26;;;;;;;1.98;1.00;;;18.00;79.80;;;;;;10516955;28;20034;-60
2022/06/12 06:07:27;;;;;;;4.50;1.55;;;18.00;79.80;;;;;;10505758;28;20059;-60
2022/06/12 06:12:28;;;;;;;4.13;0.98;;;18.00;79.80;;;;;;10504176;28;20616;-61
2022/06/12 06:17:29;;;;;;;3.25;1.13;;;18.00;79.90;;;;;;10511487;28;20068;-61
2022/06/12 06:22:30;;;;;;;2.97;1.30;;;18.00;80.10;;;;;;10505393;28;20107;-60
2022/06/12 06:27:30;;;;;;;4.60;1.00;;;18.00;80.20;;;;;;10509220;28;20412;-59
2022/06/12 06:32:32;;;;;;;3.25;1.20;;;18.00;80.40;;;;;;10505220;28;20036;-60
2022/06/12 06:37:33;;;;;;;3.80;1.52;;;18.00;81.00;;;;;;10501493;28;20059;-60
2022/06/12 06:42:34;;;;;;;4.43;1.10;;;18.00;80.60;;;;;;10508881;28;20073;-60
2022/06/12 06:47:36;;;;;;;2.40;1.02;;;18.00;80.70;;;;;;10507751;28;20020;-60
2022/06/12 06:52:37;;;;;;;2.88;1.20;;;18.00;80.80;;;;;;10503381;28;20053;-60
2022/06/12 06:57:40;;;;;;;4.32;1.50;;;18.00;80.80;;;;;;10512605;28;20035;-60
2022/06/12 07:02:41;;;;;;;3.22;1.08;;;18.00;80.90;;;;;;10511201;28;20050;-59
2022/06/12 07:07:42;;;;;;;3.70;1.27;;;18.00;81.00;;;;;;10513454;28;22018;-60
2022/06/12 07:12:43;;;;;;;5.10;1.33;;;18.00;81.10;;;;;;10506525;28;20035;-59
2022/06/12 07:17:45;;;;;;;4.45;1.25;;;18.10;81.30;;;;;;10506688;28;20031;-60
2022/06/12 07:22:45;;;;;;;3.88;1.50;;;18.10;81.40;;;;;;10508879;28;20060;-62
2022/06/12 07:27:47;;;;;;;6.35;1.50;;;18.10;81.50;;;;;;10511987;28;20788;-60
2022/06/12 07:32:48;;;;;;;5.03;1.80;;;18.10;81.70;;;;;;10507688;28;20028;-62
2022/06/12 07:37:49;;;;;;;6.55;1.65;;;18.10;81.90;;;;;;10512828;28;20020;-59
2022/06/12 07:42:49;;;;;;;5.32;2.10;;;18.20;82.10;;;;;;10513486;28;20028;-63
2022/06/12 07:47:50;;;;;;;3.72;1.60;;;18.20;82.20;;;;;;10516702;28;20035;-62
2022/06/12 07:52:51;;;;;;;4.20;1.70;;;18.30;82.30;;;;;;10503852;28;20489;-62
2022/06/12 07:57:52;;;;;;;5.57;1.45;;;18.30;82.30;;;;;;10513817;28;20020;-61
2022/06/12 08:02:53;;;;;;;5.97;1.60;;;18.30;82.30;;;;;;10505482;28;20093;-61
2022/06/12 08:07:53;;;;;;;6.72;1.83;;;18.40;82.90;;;;;;10505847;28;20455;-59
2022/06/12 08:12:57;;;;;;;7.85;2.47;;;18.40;82.30;;;;;;10503807;28;20719;-60
2022/06/12 08:17:58;;;;;;;4.22;1.42;;;18.40;82.40;;;;;;10509317;28;20127;-60
2022/06/12 08:23:05;;;;;;;7.53;1.60;;;18.50;82.40;;;;;;10507711;28;20032;-64
2022/06/12 08:28:06;;;;;;;4.43;1.70;;;18.60;82.70;;;;;;10498496;28;20674;-60
2022/06/12 08:33:07;;;;;;;6.28;1.73;;;18.60;82.50;;;;;;10507153;28;20364;-60
2022/06/12 08:38:07;;;;;;;4.25;1.60;;;18.60;82.60;;;;;;10522444;28;20023;-60
2022/06/12 08:43:36;;;;;;;7.78;2.63;;;18.70;82.70;;;;;;10517177;28;20089;-61
2022/06/12 08:48:49;;;;;;;5.32;2.38;;;18.70;83.00;;;;;;10514799;28;20027;-61
2022/06/12 08:53:58;;;;;;;6.30;1.73;;;18.70;83.10;;;;;;10513312;28;20048;-61
2022/06/12 08:59:11;;;;;;;9.27;1.40;;;18.80;82.90;;;;;;10511318;28;20024;-61
2022/06/12 09:04:16;;;;;;;3.17;1.80;;;18.90;83.00;;;;;;10515827;28;21738;-60
2022/06/12 09:09:23;;;;;;;3.42;1.50;;;18.90;83.00;;;;;;10516104;28;20168;-61
2022/06/12 09:14:39;;;;;;;4.70;1.60;;;18.90;83.00;;;;;;10502240;28;20020;-60
2022/06/12 09:19:54;;;;;;;7.57;1.75;;;19.00;83.20;;;;;;10508505;28;20115;-70
2022/06/12 09:25:01;;;;;;;5.32;1.88;;;19.10;84.30;;;;;;10507540;28;20077;-62
2022/06/12 09:30:11;;;;;;;6.63;1.90;;;19.20;84.00;;;;;;10503324;28;20424;-65
2022/06/12 09:35:40;;;;;;;9.32;2.30;;;19.30;84.10;;;;;;10514530;28;20048;-64
2022/06/12 09:41:05;;;;;;;5.88;2.10;;;19.40;84.30;;;;;;10512376;28;20077;-60
2022/06/12 09:46:48;;;;;;;5.78;1.52;;;19.50;84.10;;;;;;10514845;28;20070;-63
2022/06/12 09:51:51;;;;;;;5.55;1.88;;;19.50;84.00;;;;;;10419358;28;20056;-65
2022/06/12 09:56:55;;;;;;;4.95;1.85;;;19.60;83.20;;;;;;10512434;28;20055;-63
2022/06/12 10:02:00;;;;;;;4.80;1.85;;;19.90;82.20;;;;;;10512643;28;20016;-63
2022/06/12 10:07:24;;;;;;;3.95;1.35;;;20.20;81.70;;;;;;10507553;28;20056;-64
2022/06/12 10:12:29;;;;;;;6.72;1.60;;;20.40;80.50;;;;;;10511813;28;20111;-64
2022/06/12 10:17:43;;;;;;;7.53;1.52;;;20.40;80.90;;;;;;10510152;28;20500;-63
2022/06/12 10:22:46;;;;;;;4.63;1.67;;;20.50;80.00;;;;;;10517841;28;20500;-63
2022/06/12 10:28:19;;;;;;;6.45;1.85;;;20.40;79.00;;;;;;10497368;28;20013;-63
2022/06/12 10:33:28;;;;;;;3.80;1.20;;;20.40;78.50;;;;;;10491805;28;20385;-62
2022/06/12 10:38:31;;;;;;;7.47;1.83;;;20.30;78.10;;;;;;10511759;28;20171;-63
2022/06/12 10:43:46;;;;;;;6.03;1.48;;;20.30;78.50;;;;;;10506974;28;20016;-66
2022/06/12 10:49:15;;;;;;;4.35;1.48;;;20.40;77.00;;;;;;10509600;28;20376;-60
2022/06/12 10:54:22;;;;;;;7.25;1.70;;;20.40;77.70;;;;;;10509245;28;20603;-60
2022/06/12 10:59:35;;;;;;;3.85;1.65;;;20.40;77.90;;;;;;10500467;28;20024;-61
2022/06/12 11:05:00;;;;;;;2.65;1.42;;;20.40;77.90;;;;;;10509601;28;20020;-60
2022/06/12 11:10:25;;;;;;;5.25;1.85;;;20.40;78.00;;;;;;10510841;28;20059;-59
2022/06/12 11:15:57;;;;;;;6.50;2.63;;;20.40;78.10;;;;;;10505178;28;20461;-58
2022/06/12 11:21:27;;;;;;;5.15;1.27;;;20.50;78.00;;;;;;10506276;28;20032;-60
2022/06/12 11:26:49;;;;;;;5.40;1.42;;;20.50;78.10;;;;;;10492692;28;20036;-59
2022/06/12 11:32:03;;;;;;;7.05;1.95;;;20.50;77.70;;;;;;10514149;28;20063;-59
2022/06/12 11:37:35;;;;;;;2.53;1.27;;;20.60;77.90;;;;;;10506674;28;20089;-59
2022/06/12 11:42:59;;;;;;;3.33;1.27;;;20.60;77.50;;;;;;10512433;28;20031;-61
2022/06/12 11:48:45;;;;;;;3.17;1.15;;;20.70;77.40;;;;;;10492302;28;20131;-57
2022/06/12 11:53:58;;;;;;;4.43;1.50;;;20.70;77.30;;;;;;10474182;28;20048;-59
2022/06/12 11:59:08;;;;;;;5.10;1.05;;;20.80;77.60;;;;;;10501464;28;20032;-61
2022/06/12 12:04:09;;;;;;;3.35;1.33;;;20.80;77.30;;;;;;10504382;28;20040;-59
2022/06/12 12:09:23;;;;;;;2.25;1.27;;;20.80;77.30;;;;;;10504180;28;20048;-58
2022/06/12 12:14:29;;;;;;;2.92;1.30;;;20.90;77.10;;;;;;10510420;28;20038;-58
2022/06/12 12:19:39;;;;;;;2.30;1.33;;;20.90;77.00;;;;;;10506173;28;20016;-58
2022/06/12 12:24:51;;;;;;;6.80;1.20;;;21.00;76.90;;;;;;10512048;28;20039;-61
2022/06/12 12:29:55;;;;;;;4.25;1.27;;;21.10;76.70;;;;;;10506527;28;20024;-59
2022/06/12 12:34:56;;;;;;;4.18;1.42;;;21.10;76.80;;;;;;10508036;28;20051;-59
2022/06/12 12:45:38;;;;;;;4.28;1.50;;;21.20;76.60;;;;;;10476075;28;20040;-60
2022/06/12 12:50:57;;;;;;;3.33;1.33;;;21.20;76.50;;;;;;10510526;28;20082;-60
2022/06/12 12:56:07;;;;;;;2.08;1.40;;;21.30;76.30;;;;;;10509123;28;20443;-62
2022/06/12 13:01:24;;;;;;;2.95;1.25;;;21.30;76.40;;;;;;10503144;28;20607;-60
2022/06/12 13:06:59;;;;;;;4.00;1.73;;;21.40;76.80;;;;;;10512555;28;20052;-60
2022/06/12 13:12:18;;;;;;;2.47;1.00;;;21.40;76.00;;;;;;10510724;28;20049;-61
2022/06/12 13:17:19;;;;;;;2.08;0.98;;;21.50;76.00;;;;;;10509898;28;20032;-62
2022/06/12 13:22:49;;;;;;;1.88;1.15;;;21.60;76.10;;;;;;10513441;28;20028;-60
2022/06/12 13:27:56;;;;;;;2.85;1.00;;;21.70;75.90;;;;;;10515185;28;20025;-59
2022/06/12 13:33:15;;;;;;;4.82;1.25;;;21.80;75.80;;;;;;10517215;28;20032;-60
2022/06/12 13:38:27;;;;;;;2.00;1.10;;;21.90;75.80;;;;;;10518061;28;20060;-61
2022/06/12 13:43:32;;;;;;;4.07;1.15;;;22.00;75.80;;;;;;10515798;28;20404;-59
2022/06/12 13:48:36;;;;;;;3.97;1.20;;;22.10;75.70;;;;;;10510292;28;20115;-63
2022/06/12 13:53:43;;;;;;;9.30;1.52;;;22.30;73.80;;;;;;10506606;28;20032;-62
2022/06/12 13:58:56;;;;;;;5.95;1.92;;;22.80;71.60;;;;;;10511335;28;20036;-61
2022/06/12 14:03:59;;;;;;;4.22;1.95;;;23.00;69.30;;;;;;10512039;28;20077;-61
2022/06/12 14:09:17;;;;;;;5.45;1.98;;;23.10;70.00;;;;;;10515349;28;20055;-61
2022/06/12 14:14:48;;;;;;;8.15;2.30;;;23.30;69.20;;;;;;10510001;28;20035;-64
2022/06/12 14:20:27;;;;;;;14.35;2.83;;;23.50;67.40;;;;;;10512319;28;20032;-63
2022/06/12 14:25:27;;;;;;;5.57;1.70;;;23.20;66.60;;;;;;10428533;28;20044;-62
2022/06/12 14:30:41;;;;;;;7.45;1.88;;;23.10;68.70;;;;;;10500897;28;20507;-62
2022/06/12 14:35:45;;;;;;;7.93;1.85;;;23.10;68.00;;;;;;10507141;28;20048;-62
2022/06/12 14:40:46;;;;;;;13.75;3.05;;;23.20;67.90;;;;;;10508230;28;20024;-65
2022/06/12 14:45:50;;;;;;;14.23;2.53;;;23.50;67.80;;;;;;10514188;28;20117;-62
2022/06/12 14:50:50;;;;;;;8.10;2.78;;;23.60;68.10;;;;;;10514124;28;20033;-61
2022/06/12 14:55:53;;;;;;;10.23;2.70;;;23.30;68.80;;;;;;10507017;28;20024;-63
2022/06/12 15:01:16;;;;;;;9.57;3.78;;;23.20;68.90;;;;;;10510858;28;20107;-61
2022/06/12 15:06:17;;;;;;;5.93;2.05;;;23.10;69.10;;;;;;10509840;28;20024;-62
2022/06/12 15:11:24;;;;;;;5.22;2.00;;;22.80;69.60;;;;;;10507001;28;20067;-63
2022/06/12 15:16:28;;;;;;;8.55;2.13;;;22.50;70.20;;;;;;10505965;28;20022;-61
2022/06/12 15:21:36;;;;;;;7.10;2.70;;;22.70;70.00;;;;;;10510327;28;20047;-65
2022/06/12 15:31:56;;;;;;;8.88;3.38;;;22.60;70.30;;;;;;10509165;28;20508;-63
2022/06/12 15:36:57;;;;;;;9.43;3.50;;;22.80;70.20;;;;;;10506368;28;20039;-63
2022/06/12 15:41:57;;;;;;;11.85;3.65;;;23.00;69.70;;;;;;10509346;28;20610;-64
2022/06/12 15:46:58;;;;;;;10.13;3.38;;;22.90;69.90;;;;;;10504510;28;20028;-62
2022/06/12 15:52:00;;;;;;;6.15;3.42;;;22.70;70.30;;;;;;10504173;28;20067;-66
2022/06/12 15:57:02;;;;;;;14.15;4.63;;;22.60;70.50;;;;;;10502801;28;20036;-63
2022/06/12 16:02:19;;;;;;;10.52;2.78;;;22.50;70.50;;;;;;10502783;28;20110;-66
2022/06/12 16:07:22;;;;;;;10.95;2.35;;;22.30;69.90;;;;;;10503086;28;20515;-64
2022/06/12 16:12:22;;;;;;;5.63;2.00;;;21.90;70.80;;;;;;10504964;28;20047;-64
2022/06/12 16:17:23;;;;;;;8.05;2.00;;;21.80;70.90;;;;;;10502573;28;20024;-66
2022/06/12 16:22:24;;;;;;;4.80;2.10;;;21.70;70.90;;;;;;10509440;28;20378;-65
2022/06/12 16:27:25;;;;;;;9.38;2.08;;;21.60;71.80;;;;;;10504691;28;20491;-66
2022/06/12 16:32:26;;;;;;;6.88;2.00;;;21.50;71.30;;;;;;10501596;28;20458;-63
2022/06/12 16:37:26;;;;;;;6.28;1.85;;;21.30;71.40;;;;;;10505507;28;20097;-63
2022/06/12 16:42:27;;;;;;;5.40;2.28;;;21.10;71.60;;;;;;10509711;28;20036;-66
2022/06/12 16:47:28;;;;;;;5.80;2.15;;;20.80;72.10;;;;;;10502319;28;20032;-67
2022/06/12 16:52:28;;;;;;;6.85;1.90;;;20.60;72.40;;;;;;10509071;28;20040;-63
2022/06/12 16:57:31;;;;;;;7.07;2.22;;;20.60;72.50;;;;;;10503186;28;20047;-64
2022/06/12 17:02:32;;;;;;;6.57;2.53;;;20.60;72.50;;;;;;10510182;28;20032;-66
2022/06/12 17:07:41;;;;;;;6.50;2.10;;;20.60;72.50;;;;;;10514176;28;20052;-64
2022/06/12 17:12:43;;;;;;;6.53;2.13;;;20.60;72.40;;;;;;10512435;28;20534;-64
2022/06/12 17:20:42;;;;;;;6.50;2.20;;;20.80;72.50;;;;;;10516167;28;20039;-61
2022/06/12 17:23:09;;;;;;;8.90;2.40;;;21.00;72.40;;;;;;10512403;28;20108;-61
2022/06/12 17:28:11;;;;;;;3.53;1.55;;;21.10;72.30;;;;;;10516400;28;20024;-58
2022/06/12 17:33:14;;;;;;;8.35;1.85;;;21.30;72.40;;;;;;10500138;28;20036;-61
2022/06/12 17:38:14;;;;;;;5.60;1.90;;;21.30;72.50;;;;;;10512090;28;20028;-59
2022/06/12 17:43:15;;;;;;;6.40;1.77;;;21.40;72.60;;;;;;10510595;28;20081;-63
2022/06/12 17:48:16;;;;;;;7.10;2.22;;;21.50;72.80;;;;;;10507392;28;20024;-60
2022/06/12 17:53:17;;;;;;;5.00;2.30;;;21.50;72.90;;;;;;10511019;28;20500;-59
2022/06/12 17:58:18;;;;;;;13.55;3.85;;;21.50;73.10;;;;;;10507973;28;20028;-62
2022/06/12 18:03:19;;;;;;;8.10;2.35;;;21.40;72.50;;;;;;10501357;28;20067;-63
2022/06/12 18:08:21;;;;;;;10.27;2.30;;;21.20;72.50;;;;;;10499185;28;20588;-66
2022/06/12 18:13:22;;;;;;;7.75;2.25;;;20.90;72.60;;;;;;10505701;28;20562;-66
2022/06/12 18:19:07;;;;;;;7.70;2.50;;;20.60;73.00;;;;;;10509189;28;20130;-63
2022/06/12 18:23:48;;;;;;;5.70;2.13;;;20.10;73.70;;;;;;10498487;28;20419;-61
2022/06/12 18:28:49;;;;;;;4.03;1.88;;;19.80;74.60;;;;;;10502235;28;20024;-67
2022/06/12 18:33:50;;;;;;;9.18;2.05;;;19.60;74.30;;;;;;10504608;28;20567;-61
2022/06/12 18:38:50;;;;;;;4.90;1.90;;;19.50;74.40;;;;;;10511986;28;20032;-65
2022/06/12 18:43:51;;;;;;;6.90;1.88;;;19.20;74.30;;;;;;10512699;28;20337;-61
2022/06/12 18:48:52;;;;;;;4.45;2.15;;;19.10;74.40;;;;;;10509485;28;20020;-60
2022/06/12 18:53:53;;;;;;;9.38;1.85;;;18.90;74.30;;;;;;10500313;28;20044;-60
2022/06/12 18:58:54;;;;;;;4.80;1.83;;;18.90;74.20;;;;;;10497886;28;20032;-61
2022/06/12 19:03:56;;;;;;;5.47;1.92;;;18.80;74.10;;;;;;10508355;28;20039;-67
2022/06/12 19:08:57;;;;;;;5.05;1.85;;;18.90;74.00;;;;;;10499611;28;20464;-64
2022/06/12 19:13:58;;;;;;;5.13;1.98;;;18.70;74.00;;;;;;10507584;28;20056;-62
2022/06/12 19:19:00;;;;;;;5.72;1.83;;;18.70;74.00;;;;;;10502298;28;20028;-59
2022/06/12 19:24:02;;;;;;;3.92;1.50;;;18.80;74.20;;;;;;10503708;28;20070;-70
2022/06/12 19:29:04;;;;;;;3.35;1.70;;;19.10;74.00;;;;;;10504843;28;20024;-59
2022/06/12 19:34:04;;;;;;;6.53;1.58;;;19.30;73.80;;;;;;10505820;28;20048;-60
2022/06/12 19:39:08;;;;;;;4.60;1.75;;;19.50;73.70;;;;;;10496151;28;20032;-61
2022/06/12 19:44:08;;;;;;;4.75;1.70;;;19.60;73.60;;;;;;10505638;28;20040;-59
2022/06/12 19:49:09;;;;;;;4.38;1.70;;;19.70;73.50;;;;;;10502465;28;20070;-59
2022/06/12 19:54:12;;;;;;;5.97;1.92;;;19.80;73.50;;;;;;10502011;28;20040;-61
2022/06/12 19:59:13;;;;;;;3.38;1.50;;;19.80;73.50;;;;;;10504302;28;20115;-58
2022/06/12 20:09:33;;;;;;;4.22;1.55;;;19.90;73.60;;;;;;10501605;28;20129;-57
2022/06/12 20:14:34;;;;;;;4.40;1.50;;;19.90;73.70;;;;;;10511051;28;20936;-58
2022/06/12 20:19:35;;;;;;;3.60;1.40;;;19.90;73.80;;;;;;10502872;28;20134;-57
2022/06/12 20:24:36;;;;;;;3.83;1.45;;;19.90;73.80;;;;;;10496964;28;20439;-58
2022/06/12 20:29:37;;;;;;;6.40;1.75;;;20.00;74.00;;;;;;10504639;28;20489;-60
2022/06/12 20:34:40;;;;;;;3.28;1.80;;;20.10;74.10;;;;;;10503364;28;20032;-58
2022/06/12 20:39:41;;;;;;;3.15;1.65;;;19.90;74.00;;;;;;10512554;28;20020;-58
2022/06/12 20:44:42;;;;;;;2.85;1.67;;;19.90;74.10;;;;;;10518891;28;20028;-58
2022/06/12 20:49:42;;;;;;;3.35;1.70;;;19.90;74.20;;;;;;10520940;28;20047;-59
2022/06/12 20:54:43;;;;;;;2.63;1.52;;;19.90;74.30;;;;;;10525235;28;20400;-58
2022/06/12 20:59:46;;;;;;;4.07;1.73;;;19.90;74.40;;;;;;10511871;28;20028;-58
2022/06/12 21:04:47;;;;;;;4.05;1.63;;;19.90;74.50;;;;;;10513253;28;20469;-57
2022/06/12 21:09:47;;;;;;;3.75;1.95;;;19.90;74.60;;;;;;10513533;28;20048;-59
2022/06/12 21:14:48;;;;;;;4.63;1.98;;;19.90;74.70;;;;;;10509356;28;20052;-58
2022/06/12 21:19:49;;;;;;;6.22;1.83;;;19.80;74.70;;;;;;10517399;28;20129;-57
2022/06/12 21:24:50;;;;;;;4.78;1.80;;;19.80;74.80;;;;;;10511704;28;20028;-58
2022/06/12 21:29:51;;;;;;;2.65;1.63;;;19.80;74.80;;;;;;10515327;28;20024;-59
2022/06/12 21:34:52;;;;;;;3.72;1.73;;;19.70;74.80;;;;;;10518818;28;20035;-58
2022/06/12 21:39:53;;;;;;;6.28;1.70;;;19.70;74.90;;;;;;10516931;28;20024;-60
2022/06/12 21:44:54;;;;;;;5.43;2.00;;;19.70;75.00;;;;;;10514778;28;20036;-58
2022/06/12 21:49:57;;;;;;;4.28;1.73;;;19.70;75.00;;;;;;10520170;28;20020;-58
2022/06/12 21:54:58;;;;;;;5.90;1.65;;;19.60;75.10;;;;;;10512150;28;20048;-58
2022/06/12 21:59:59;;;;;;;4.30;1.83;;;19.60;75.10;;;;;;10510546;28;20100;-57
2022/06/12 22:04:59;;;;;;;3.97;1.88;;;19.60;75.20;;;;;;10508608;28;20028;-58
2022/06/12 22:10:00;;;;;;;4.00;1.70;;;19.60;75.30;;;;;;10507775;28;20048;-58
2022/06/12 22:15:02;;;;;;;4.20;1.95;;;19.50;75.30;;;;;;10510752;28;20149;-58
2022/06/12 22:20:04;;;;;;;4.20;1.83;;;19.50;75.40;;;;;;10507315;28;20060;-58
2022/06/12 22:25:05;;;;;;;4.03;1.80;;;19.50;75.50;;;;;;10513328;28;20078;-58
2022/06/12 22:30:07;;;;;;;3.88;1.80;;;19.50;75.50;;;;;;10508953;28;20063;-58
2022/06/12 22:35:09;;;;;;;4.07;1.80;;;19.40;75.60;;;;;;10510435;28;20113;-58
2022/06/12 22:40:10;;;;;;;4.13;1.77;;;19.40;75.70;;;;;;10511110;28;20412;-59
2022/06/12 22:45:12;;;;;;;6.78;2.10;;;19.40;75.80;;;;;;10504060;28;20028;-58
2022/06/12 22:50:12;;;;;;;4.95;1.90;;;19.40;75.80;;;;;;10506444;28;20040;-58
2022/06/12 22:55:13;;;;;;;5.28;1.88;;;19.30;75.80;;;;;;10504763;28;20390;-58
2022/06/12 23:00:17;;;;;;;4.32;1.92;;;19.30;75.90;;;;;;10504367;28;20115;-57
2022/06/12 23:05:18;;;;;;;6.95;1.90;;;19.30;75.90;;;;;;10507755;28;20024;-58
2022/06/12 23:10:19;;;;;;;4.40;1.95;;;19.30;76.00;;;;;;10507087;28;20468;-58
2022/06/12 23:15:20;;;;;;;5.10;2.00;;;19.20;76.00;;;;;;10505429;28;20056;-58
2022/06/12 23:20:22;;;;;;;6.28;2.85;;;19.20;76.10;;;;;;10512517;28;20111;-58
2022/06/12 23:25:22;;;;;;;4.80;1.95;;;19.20;76.10;;;;;;10507395;28;20031;-58
2022/06/12 23:30:24;;;;;;;5.00;1.90;;;19.20;76.20;;;;;;10503611;28;20505;-58
2022/06/12 23:35:25;;;;;;;3.28;1.75;;;19.20;76.20;;;;;;10500200;28;20028;-60
2022/06/12 23:40:25;;;;;;;3.63;1.88;;;19.10;76.20;;;;;;10505051;28;20031;-60
2022/06/12 23:45:26;;;;;;;4.10;1.90;;;19.10;76.30;;;;;;10504678;28;20504;-61
2022/06/12 23:50:27;;;;;;;3.85;1.88;;;19.10;76.40;;;;;;10501065;28;20036;-58
2022/06/12 23:55:29;;;;;;;5.57;2.05;;;19.10;76.40;;;;;;10502195;28;20020;-61
